sensor_id;sensor_type;location;lat;lon;timestamp;temperature;humidity
78536;SHT31;67829;51.968;5.684;2024-02-23T00:00:27;7.6;69.7
78536;SHT31;67829;51.968;5.684;2024-02-23T00:02:56;7.6;68.7
78536;SHT31;67829;51.968;5.684;2024-02-23T00:05:24;7.5;70.0
78536;SHT31;67829;51.968;5.684;2024-02-23T00:07:53;7.5;70.7
78536;SHT31;67829;51.968;5.684;2024-02-23T00:10:21;7.5;71.6
78536;SHT31;67829;51.968;5.684;2024-02-23T00:12:50;7.5;72.5
78536;SHT31;67829;51.968;5.684;2024-02-23T00:15:19;7.5;73.4
78536;SHT31;67829;51.968;5.684;2024-02-23T00:17:47;7.5;73.1
78536;SHT31;67829;51.968;5.684;2024-02-23T00:20:16;7.5;73.0
78536;SHT31;67829;51.968;5.684;2024-02-23T00:22:44;7.5;73.2
78536;SHT31;67829;51.968;5.684;2024-02-23T00:25:13;7.6;73.1
78536;SHT31;67829;51.968;5.684;2024-02-23T00:27:42;7.6;72.9
78536;SHT31;67829;51.968;5.684;2024-02-23T00:30:11;7.6;73.0
78536;SHT31;67829;51.968;5.684;2024-02-23T00:32:40;7.6;73.1
78536;SHT31;67829;51.968;5.684;2024-02-23T00:35:09;7.6;72.8
78536;SHT31;67829;51.968;5.684;2024-02-23T00:37:37;7.7;72.4
78536;SHT31;67829;51.968;5.684;2024-02-23T00:40:07;7.7;71.4
78536;SHT31;67829;51.968;5.684;2024-02-23T00:42:38;7.7;70.7
78536;SHT31;67829;51.968;5.684;2024-02-23T00:45:08;7.7;70.2
78536;SHT31;67829;51.968;5.684;2024-02-23T00:47:38;7.7;70.9
78536;SHT31;67829;51.968;5.684;2024-02-23T00:50:08;7.7;69.8
78536;SHT31;67829;51.968;5.684;2024-02-23T00:52:38;7.7;69.4
78536;SHT31;67829;51.968;5.684;2024-02-23T00:55:08;7.6;67.9
78536;SHT31;67829;51.968;5.684;2024-02-23T00:57:38;7.6;67.1
78536;SHT31;67829;51.968;5.684;2024-02-23T01:00:08;7.5;66.9
78536;SHT31;67829;51.968;5.684;2024-02-23T01:02:37;7.4;67.1
78536;SHT31;67829;51.968;5.684;2024-02-23T01:05:08;7.3;67.3
78536;SHT31;67829;51.968;5.684;2024-02-23T01:07:38;7.3;67.6
78536;SHT31;67829;51.968;5.684;2024-02-23T01:10:10;7.2;68.9
78536;SHT31;67829;51.968;5.684;2024-02-23T01:12:38;7.2;69.8
78536;SHT31;67829;51.968;5.684;2024-02-23T01:15:08;7.1;71.2
78536;SHT31;67829;51.968;5.684;2024-02-23T01:17:36;7.1;72.2
78536;SHT31;67829;51.968;5.684;2024-02-23T01:20:06;7.1;73.1
78536;SHT31;67829;51.968;5.684;2024-02-23T01:22:34;7.1;73.6
78536;SHT31;67829;51.968;5.684;2024-02-23T01:25:04;7.1;73.8
78536;SHT31;67829;51.968;5.684;2024-02-23T01:27:33;7.1;73.9
78536;SHT31;67829;51.968;5.684;2024-02-23T01:30:02;7.1;73.6
78536;SHT31;67829;51.968;5.684;2024-02-23T01:32:30;7.1;73.5
78536;SHT31;67829;51.968;5.684;2024-02-23T01:34:59;7.1;73.5
78536;SHT31;67829;51.968;5.684;2024-02-23T01:37:27;7.1;73.5
78536;SHT31;67829;51.968;5.684;2024-02-23T01:39:56;7.1;73.3
78536;SHT31;67829;51.968;5.684;2024-02-23T01:42:26;7.1;73.2
78536;SHT31;67829;51.968;5.684;2024-02-23T01:44:54;7.1;73.0
78536;SHT31;67829;51.968;5.684;2024-02-23T01:47:25;7.1;72.9
78536;SHT31;67829;51.968;5.684;2024-02-23T01:49:54;7.1;72.8
78536;SHT31;67829;51.968;5.684;2024-02-23T01:52:23;7.1;72.8
78536;SHT31;67829;51.968;5.684;2024-02-23T01:54:54;7.1;72.6
78536;SHT31;67829;51.968;5.684;2024-02-23T01:57:24;7.1;72.5
78536;SHT31;67829;51.968;5.684;2024-02-23T01:59:55;7.1;72.2
78536;SHT31;67829;51.968;5.684;2024-02-23T02:02:24;7.1;72.0
78536;SHT31;67829;51.968;5.684;2024-02-23T02:04:53;7.1;72.2
78536;SHT31;67829;51.968;5.684;2024-02-23T02:07:24;7.1;72.0
78536;SHT31;67829;51.968;5.684;2024-02-23T02:09:52;7.1;72.0
78536;SHT31;67829;51.968;5.684;2024-02-23T02:12:28;7.1;71.9
78536;SHT31;67829;51.968;5.684;2024-02-23T02:14:57;7.1;71.7
78536;SHT31;67829;51.968;5.684;2024-02-23T02:17:27;7.1;71.7
78536;SHT31;67829;51.968;5.684;2024-02-23T02:19:59;7.1;71.3
78536;SHT31;67829;51.968;5.684;2024-02-23T02:22:32;7.1;71.3
78536;SHT31;67829;51.968;5.684;2024-02-23T02:25:03;7.1;71.5
78536;SHT31;67829;51.968;5.684;2024-02-23T02:27:32;7.1;71.3
78536;SHT31;67829;51.968;5.684;2024-02-23T02:30:03;7.1;71.4
78536;SHT31;67829;51.968;5.684;2024-02-23T02:32:35;7.1;71.3
78536;SHT31;67829;51.968;5.684;2024-02-23T02:35:05;7.0;71.1
78536;SHT31;67829;51.968;5.684;2024-02-23T02:37:34;7.0;71.0
78536;SHT31;67829;51.968;5.684;2024-02-23T02:40:03;7.0;71.3
78536;SHT31;67829;51.968;5.684;2024-02-23T02:42:32;7.0;71.3
78536;SHT31;67829;51.968;5.684;2024-02-23T02:45:02;7.0;71.2
78536;SHT31;67829;51.968;5.684;2024-02-23T02:47:31;7.0;71.6
78536;SHT31;67829;51.968;5.684;2024-02-23T02:49:59;7.0;71.4
78536;SHT31;67829;51.968;5.684;2024-02-23T02:52:29;7.0;71.3
78536;SHT31;67829;51.968;5.684;2024-02-23T02:54:58;7.0;71.4
78536;SHT31;67829;51.968;5.684;2024-02-23T02:57:27;7.0;71.7
78536;SHT31;67829;51.968;5.684;2024-02-23T02:59:56;7.0;71.8
78536;SHT31;67829;51.968;5.684;2024-02-23T03:02:25;7.0;71.9
78536;SHT31;67829;51.968;5.684;2024-02-23T03:04:53;7.0;71.7
78536;SHT31;67829;51.968;5.684;2024-02-23T03:07:22;7.0;71.4
78536;SHT31;67829;51.968;5.684;2024-02-23T03:09:51;7.0;70.9
78536;SHT31;67829;51.968;5.684;2024-02-23T03:12:21;7.0;70.7
78536;SHT31;67829;51.968;5.684;2024-02-23T03:14:51;7.0;70.7
78536;SHT31;67829;51.968;5.684;2024-02-23T03:17:19;7.0;70.6
78536;SHT31;67829;51.968;5.684;2024-02-23T03:19:48;7.0;70.5
78536;SHT31;67829;51.968;5.684;2024-02-23T03:22:17;7.0;70.5
78536;SHT31;67829;51.968;5.684;2024-02-23T03:24:46;7.0;70.8
78536;SHT31;67829;51.968;5.684;2024-02-23T03:27:14;7.0;70.6
78536;SHT31;67829;51.968;5.684;2024-02-23T03:29:43;7.0;71.0
78536;SHT31;67829;51.968;5.684;2024-02-23T03:32:13;7.0;71.4
78536;SHT31;67829;51.968;5.684;2024-02-23T03:34:42;7.0;71.2
78536;SHT31;67829;51.968;5.684;2024-02-23T03:37:10;7.0;71.1
78536;SHT31;67829;51.968;5.684;2024-02-23T03:39:38;7.0;71.0
78536;SHT31;67829;51.968;5.684;2024-02-23T03:42:08;7.0;70.8
78536;SHT31;67829;51.968;5.684;2024-02-23T03:44:37;7.1;71.0
78536;SHT31;67829;51.968;5.684;2024-02-23T03:47:08;7.1;70.6
78536;SHT31;67829;51.968;5.684;2024-02-23T03:49:38;7.1;70.5
78536;SHT31;67829;51.968;5.684;2024-02-23T03:52:09;7.1;70.3
78536;SHT31;67829;51.968;5.684;2024-02-23T03:54:37;7.1;70.2
78536;SHT31;67829;51.968;5.684;2024-02-23T03:57:06;7.0;70.3
78536;SHT31;67829;51.968;5.684;2024-02-23T03:59:36;7.0;70.2
78536;SHT31;67829;51.968;5.684;2024-02-23T04:02:07;7.0;70.4
78536;SHT31;67829;51.968;5.684;2024-02-23T04:04:36;7.0;70.5
78536;SHT31;67829;51.968;5.684;2024-02-23T04:07:04;7.0;70.7
78536;SHT31;67829;51.968;5.684;2024-02-23T04:09:33;7.0;70.4
78536;SHT31;67829;51.968;5.684;2024-02-23T04:12:02;7.0;70.5
78536;SHT31;67829;51.968;5.684;2024-02-23T04:14:32;7.0;70.2
78536;SHT31;67829;51.968;5.684;2024-02-23T04:17:03;6.9;70.4
78536;SHT31;67829;51.968;5.684;2024-02-23T04:19:31;6.9;70.3
78536;SHT31;67829;51.968;5.684;2024-02-23T04:22:00;6.9;70.6
78536;SHT31;67829;51.968;5.684;2024-02-23T04:24:28;6.9;70.5
78536;SHT31;67829;51.968;5.684;2024-02-23T04:26:57;6.9;70.4
78536;SHT31;67829;51.968;5.684;2024-02-23T04:29:25;6.9;70.6
78536;SHT31;67829;51.968;5.684;2024-02-23T04:31:54;6.9;70.8
78536;SHT31;67829;51.968;5.684;2024-02-23T04:34:22;6.9;71.0
78536;SHT31;67829;51.968;5.684;2024-02-23T04:36:50;6.9;70.8
78536;SHT31;67829;51.968;5.684;2024-02-23T04:39:19;6.9;71.2
78536;SHT31;67829;51.968;5.684;2024-02-23T04:41:49;6.9;71.1
78536;SHT31;67829;51.968;5.684;2024-02-23T04:44:19;6.9;71.1
78536;SHT31;67829;51.968;5.684;2024-02-23T04:46:48;6.9;70.9
78536;SHT31;67829;51.968;5.684;2024-02-23T04:49:16;6.9;70.8
78536;SHT31;67829;51.968;5.684;2024-02-23T04:51:45;6.9;71.0
78536;SHT31;67829;51.968;5.684;2024-02-23T04:54:14;6.9;70.9
78536;SHT31;67829;51.968;5.684;2024-02-23T04:56:43;7.0;70.9
78536;SHT31;67829;51.968;5.684;2024-02-23T04:59:11;7.0;71.1
78536;SHT31;67829;51.968;5.684;2024-02-23T05:01:39;7.0;71.1
78536;SHT31;67829;51.968;5.684;2024-02-23T05:04:09;7.0;70.8
78536;SHT31;67829;51.968;5.684;2024-02-23T05:06:38;7.1;70.8
78536;SHT31;67829;51.968;5.684;2024-02-23T05:09:07;7.1;71.0
78536;SHT31;67829;51.968;5.684;2024-02-23T05:11:35;7.1;70.8
78536;SHT31;67829;51.968;5.684;2024-02-23T05:14:04;7.1;70.5
78536;SHT31;67829;51.968;5.684;2024-02-23T05:16:32;7.2;70.1
78536;SHT31;67829;51.968;5.684;2024-02-23T05:19:01;7.2;70.5
78536;SHT31;67829;51.968;5.684;2024-02-23T05:21:29;7.2;70.2
78536;SHT31;67829;51.968;5.684;2024-02-23T05:23:58;7.3;70.0
78536;SHT31;67829;51.968;5.684;2024-02-23T05:26:27;7.3;69.9
78536;SHT31;67829;51.968;5.684;2024-02-23T05:28:55;7.3;70.1
78536;SHT31;67829;51.968;5.684;2024-02-23T05:31:45;7.3;69.5
78536;SHT31;67829;51.968;5.684;2024-02-23T05:34:15;7.4;69.4
78536;SHT31;67829;51.968;5.684;2024-02-23T05:36:45;7.4;69.2
78536;SHT31;67829;51.968;5.684;2024-02-23T05:39:15;7.4;69.3
78536;SHT31;67829;51.968;5.684;2024-02-23T05:41:44;7.4;69.1
78536;SHT31;67829;51.968;5.684;2024-02-23T05:44:15;7.4;69.1
78536;SHT31;67829;51.968;5.684;2024-02-23T05:46:43;7.5;68.7
78536;SHT31;67829;51.968;5.684;2024-02-23T05:49:12;7.5;68.6
78536;SHT31;67829;51.968;5.684;2024-02-23T05:51:41;7.5;68.6
78536;SHT31;67829;51.968;5.684;2024-02-23T05:54:10;7.5;68.3
78536;SHT31;67829;51.968;5.684;2024-02-23T05:56:38;7.6;68.6
78536;SHT31;67829;51.968;5.684;2024-02-23T05:59:07;7.6;68.1
78536;SHT31;67829;51.968;5.684;2024-02-23T06:01:36;7.6;68.1
78536;SHT31;67829;51.968;5.684;2024-02-23T06:04:04;7.6;68.0
78536;SHT31;67829;51.968;5.684;2024-02-23T06:06:34;7.6;67.8
78536;SHT31;67829;51.968;5.684;2024-02-23T06:09:04;7.6;67.9
78536;SHT31;67829;51.968;5.684;2024-02-23T06:11:32;7.7;68.2
78536;SHT31;67829;51.968;5.684;2024-02-23T06:14:01;7.7;67.8
78536;SHT31;67829;51.968;5.684;2024-02-23T06:16:29;7.7;67.6
78536;SHT31;67829;51.968;5.684;2024-02-23T06:18:58;7.7;67.7
78536;SHT31;67829;51.968;5.684;2024-02-23T06:21:27;7.7;67.6
78536;SHT31;67829;51.968;5.684;2024-02-23T06:23:55;7.7;67.3
78536;SHT31;67829;51.968;5.684;2024-02-23T06:26:24;7.7;67.0
78536;SHT31;67829;51.968;5.684;2024-02-23T06:28:52;7.7;66.8
78536;SHT31;67829;51.968;5.684;2024-02-23T06:31:21;7.7;67.3
78536;SHT31;67829;51.968;5.684;2024-02-23T06:33:50;7.7;67.3
78536;SHT31;67829;51.968;5.684;2024-02-23T06:36:19;7.7;67.5
78536;SHT31;67829;51.968;5.684;2024-02-23T06:38:47;7.7;67.5
78536;SHT31;67829;51.968;5.684;2024-02-23T06:41:18;7.8;67.4
78536;SHT31;67829;51.968;5.684;2024-02-23T06:43:47;7.8;67.6
78536;SHT31;67829;51.968;5.684;2024-02-23T06:46:19;7.8;67.8
78536;SHT31;67829;51.968;5.684;2024-02-23T06:48:50;7.8;67.5
78536;SHT31;67829;51.968;5.684;2024-02-23T06:51:21;7.8;67.6
78536;SHT31;67829;51.968;5.684;2024-02-23T06:53:49;7.8;67.5
78536;SHT31;67829;51.968;5.684;2024-02-23T06:56:18;7.8;67.9
78536;SHT31;67829;51.968;5.684;2024-02-23T06:58:46;7.8;67.4
78536;SHT31;67829;51.968;5.684;2024-02-23T07:01:15;7.9;67.4
78536;SHT31;67829;51.968;5.684;2024-02-23T07:03:43;7.9;67.7
78536;SHT31;67829;51.968;5.684;2024-02-23T07:06:12;7.9;67.5
78536;SHT31;67829;51.968;5.684;2024-02-23T07:08:42;7.9;67.2
78536;SHT31;67829;51.968;5.684;2024-02-23T07:11:11;7.9;66.8
78536;SHT31;67829;51.968;5.684;2024-02-23T07:13:42;7.9;66.2
78536;SHT31;67829;51.968;5.684;2024-02-23T07:16:12;8.0;65.8
78536;SHT31;67829;51.968;5.684;2024-02-23T07:18:42;8.0;65.7
78536;SHT31;67829;51.968;5.684;2024-02-23T07:21:10;8.0;65.7
78536;SHT31;67829;51.968;5.684;2024-02-23T07:23:39;8.0;66.1
78536;SHT31;67829;51.968;5.684;2024-02-23T07:26:07;8.0;66.2
78536;SHT31;67829;51.968;5.684;2024-02-23T07:28:36;8.0;65.5
78536;SHT31;67829;51.968;5.684;2024-02-23T07:31:05;8.0;65.6
78536;SHT31;67829;51.968;5.684;2024-02-23T07:33:33;8.1;65.4
78536;SHT31;67829;51.968;5.684;2024-02-23T07:36:07;8.1;65.3
78536;SHT31;67829;51.968;5.684;2024-02-23T07:38:36;8.1;65.5
78536;SHT31;67829;51.968;5.684;2024-02-23T07:41:05;8.1;65.2
78536;SHT31;67829;51.968;5.684;2024-02-23T07:43:33;8.1;65.2
78536;SHT31;67829;51.968;5.684;2024-02-23T07:46:02;8.1;65.2
78536;SHT31;67829;51.968;5.684;2024-02-23T07:48:31;8.2;65.0
78536;SHT31;67829;51.968;5.684;2024-02-23T07:51:00;8.2;64.6
78536;SHT31;67829;51.968;5.684;2024-02-23T07:53:28;8.2;64.7
78536;SHT31;67829;51.968;5.684;2024-02-23T07:56:01;8.2;65.1
78536;SHT31;67829;51.968;5.684;2024-02-23T07:58:33;8.2;65.2
78536;SHT31;67829;51.968;5.684;2024-02-23T08:01:01;8.3;65.1
78536;SHT31;67829;51.968;5.684;2024-02-23T08:03:30;8.3;64.1
78536;SHT31;67829;51.968;5.684;2024-02-23T08:05:59;8.3;64.2
78536;SHT31;67829;51.968;5.684;2024-02-23T08:08:27;8.4;63.5
78536;SHT31;67829;51.968;5.684;2024-02-23T08:10:59;8.4;63.3
78536;SHT31;67829;51.968;5.684;2024-02-23T08:13:27;8.4;62.8
78536;SHT31;67829;51.968;5.684;2024-02-23T08:15:57;8.4;63.5
78536;SHT31;67829;51.968;5.684;2024-02-23T08:18:25;8.4;62.8
78536;SHT31;67829;51.968;5.684;2024-02-23T08:20:54;8.4;62.3
78536;SHT31;67829;51.968;5.684;2024-02-23T08:23:25;8.5;62.6
78536;SHT31;67829;51.968;5.684;2024-02-23T08:25:53;8.5;63.0
78536;SHT31;67829;51.968;5.684;2024-02-23T08:28:23;8.5;63.5
78536;SHT31;67829;51.968;5.684;2024-02-23T08:30:52;8.5;63.5
78536;SHT31;67829;51.968;5.684;2024-02-23T08:33:21;8.5;63.5
78536;SHT31;67829;51.968;5.684;2024-02-23T08:35:50;8.5;63.4
78536;SHT31;67829;51.968;5.684;2024-02-23T08:38:18;8.6;62.5
78536;SHT31;67829;51.968;5.684;2024-02-23T08:40:49;8.6;63.0
78536;SHT31;67829;51.968;5.684;2024-02-23T08:43:18;8.6;62.3
78536;SHT31;67829;51.968;5.684;2024-02-23T08:45:46;8.7;62.8
78536;SHT31;67829;51.968;5.684;2024-02-23T08:48:15;8.7;63.5
78536;SHT31;67829;51.968;5.684;2024-02-23T08:50:44;8.8;62.9
78536;SHT31;67829;51.968;5.684;2024-02-23T08:53:13;8.8;62.3
78536;SHT31;67829;51.968;5.684;2024-02-23T08:55:42;8.9;62.5
78536;SHT31;67829;51.968;5.684;2024-02-23T08:58:10;8.9;61.6
78536;SHT31;67829;51.968;5.684;2024-02-23T09:00:41;8.9;61.8
78536;SHT31;67829;51.968;5.684;2024-02-23T09:03:09;8.9;61.9
78536;SHT31;67829;51.968;5.684;2024-02-23T09:05:38;8.9;61.7
78536;SHT31;67829;51.968;5.684;2024-02-23T09:08:07;8.9;61.7
78536;SHT31;67829;51.968;5.684;2024-02-23T09:10:36;9.0;61.4
78536;SHT31;67829;51.968;5.684;2024-02-23T09:13:04;9.0;61.4
78536;SHT31;67829;51.968;5.684;2024-02-23T09:15:33;9.0;61.4
78536;SHT31;67829;51.968;5.684;2024-02-23T09:18:02;9.0;61.9
78536;SHT31;67829;51.968;5.684;2024-02-23T09:20:30;9.0;61.3
78536;SHT31;67829;51.968;5.684;2024-02-23T09:22:59;9.0;61.6
78536;SHT31;67829;51.968;5.684;2024-02-23T09:25:27;9.0;61.9
78536;SHT31;67829;51.968;5.684;2024-02-23T09:27:58;9.0;62.4
78536;SHT31;67829;51.968;5.684;2024-02-23T09:30:27;9.1;61.9
78536;SHT31;67829;51.968;5.684;2024-02-23T09:32:55;9.1;61.8
78536;SHT31;67829;51.968;5.684;2024-02-23T09:35:24;9.1;61.7
78536;SHT31;67829;51.968;5.684;2024-02-23T09:37:52;9.2;61.5
78536;SHT31;67829;51.968;5.684;2024-02-23T09:40:21;9.2;62.1
78536;SHT31;67829;51.968;5.684;2024-02-23T09:42:55;9.2;62.4
78536;SHT31;67829;51.968;5.684;2024-02-23T09:45:25;9.3;61.9
78536;SHT31;67829;51.968;5.684;2024-02-23T09:47:57;9.3;61.5
78536;SHT31;67829;51.968;5.684;2024-02-23T09:50:28;9.3;62.0
78536;SHT31;67829;51.968;5.684;2024-02-23T09:52:58;9.4;62.4
78536;SHT31;67829;51.968;5.684;2024-02-23T09:55:27;9.4;62.7
78536;SHT31;67829;51.968;5.684;2024-02-23T09:57:57;9.4;62.9
78536;SHT31;67829;51.968;5.684;2024-02-23T10:00:28;9.4;62.9
78536;SHT31;67829;51.968;5.684;2024-02-23T10:02:58;9.4;62.9
78536;SHT31;67829;51.968;5.684;2024-02-23T10:05:30;9.4;63.6
78536;SHT31;67829;51.968;5.684;2024-02-23T10:08:00;9.4;63.7
78536;SHT31;67829;51.968;5.684;2024-02-23T10:10:33;9.4;64.2
78536;SHT31;67829;51.968;5.684;2024-02-23T10:13:02;9.4;64.0
78536;SHT31;67829;51.968;5.684;2024-02-23T10:15:32;9.4;64.2
78536;SHT31;67829;51.968;5.684;2024-02-23T10:18:02;9.3;64.3
78536;SHT31;67829;51.968;5.684;2024-02-23T10:20:31;9.3;64.2
78536;SHT31;67829;51.968;5.684;2024-02-23T10:23:01;9.3;64.3
78536;SHT31;67829;51.968;5.684;2024-02-23T10:25:30;9.3;64.5
78536;SHT31;67829;51.968;5.684;2024-02-23T10:28:03;9.3;65.0
78536;SHT31;67829;51.968;5.684;2024-02-23T10:30:33;9.2;64.8
78536;SHT31;67829;51.968;5.684;2024-02-23T10:33:03;9.2;65.4
78536;SHT31;67829;51.968;5.684;2024-02-23T10:35:36;9.2;64.9
78536;SHT31;67829;51.968;5.684;2024-02-23T10:38:08;9.2;63.7
78536;SHT31;67829;51.968;5.684;2024-02-23T10:40:39;9.2;64.8
78536;SHT31;67829;51.968;5.684;2024-02-23T10:43:12;9.2;64.2
78536;SHT31;67829;51.968;5.684;2024-02-23T10:45:45;9.3;64.6
78536;SHT31;67829;51.968;5.684;2024-02-23T10:48:15;9.3;64.8
78536;SHT31;67829;51.968;5.684;2024-02-23T10:50:44;9.3;64.3
78536;SHT31;67829;51.968;5.684;2024-02-23T10:53:14;9.3;64.2
78536;SHT31;67829;51.968;5.684;2024-02-23T10:55:44;9.4;64.4
78536;SHT31;67829;51.968;5.684;2024-02-23T10:58:13;9.4;64.5
78536;SHT31;67829;51.968;5.684;2024-02-23T11:00:43;9.4;63.5
78536;SHT31;67829;51.968;5.684;2024-02-23T11:03:15;9.4;63.2
78536;SHT31;67829;51.968;5.684;2024-02-23T11:05:47;9.5;63.2
78536;SHT31;67829;51.968;5.684;2024-02-23T11:08:17;9.5;63.7
78536;SHT31;67829;51.968;5.684;2024-02-23T11:10:51;9.5;63.9
78536;SHT31;67829;51.968;5.684;2024-02-23T11:13:36;9.5;63.5
78536;SHT31;67829;51.968;5.684;2024-02-23T11:16:06;9.5;63.5
78536;SHT31;67829;51.968;5.684;2024-02-23T11:18:38;9.6;62.9
78536;SHT31;67829;51.968;5.684;2024-02-23T11:21:10;9.6;63.6
78536;SHT31;67829;51.968;5.684;2024-02-23T11:23:47;9.6;63.3
78536;SHT31;67829;51.968;5.684;2024-02-23T11:26:18;9.6;63.0
78536;SHT31;67829;51.968;5.684;2024-02-23T11:28:50;9.6;62.5
78536;SHT31;67829;51.968;5.684;2024-02-23T11:31:22;9.6;63.2
78536;SHT31;67829;51.968;5.684;2024-02-23T11:33:53;9.6;63.1
78536;SHT31;67829;51.968;5.684;2024-02-23T11:36:28;9.7;62.7
78536;SHT31;67829;51.968;5.684;2024-02-23T11:38:59;9.7;63.5
78536;SHT31;67829;51.968;5.684;2024-02-23T11:41:29;9.7;63.7
78536;SHT31;67829;51.968;5.684;2024-02-23T11:43:58;9.7;63.2
78536;SHT31;67829;51.968;5.684;2024-02-23T11:46:28;9.7;62.5
78536;SHT31;67829;51.968;5.684;2024-02-23T11:48:56;9.7;63.1
78536;SHT31;67829;51.968;5.684;2024-02-23T11:51:26;9.8;63.3
78536;SHT31;67829;51.968;5.684;2024-02-23T11:53:57;9.8;63.2
78536;SHT31;67829;51.968;5.684;2024-02-23T11:56:27;9.8;63.1
78536;SHT31;67829;51.968;5.684;2024-02-23T11:58:56;9.8;62.7
78536;SHT31;67829;51.968;5.684;2024-02-23T12:01:31;9.9;63.1
78536;SHT31;67829;51.968;5.684;2024-02-23T12:03:59;9.9;62.9
78536;SHT31;67829;51.968;5.684;2024-02-23T12:06:29;9.9;63.0
78536;SHT31;67829;51.968;5.684;2024-02-23T12:09:00;9.9;62.2
78536;SHT31;67829;51.968;5.684;2024-02-23T12:11:29;10.0;63.0
78536;SHT31;67829;51.968;5.684;2024-02-23T12:13:58;10.0;62.6
78536;SHT31;67829;51.968;5.684;2024-02-23T12:16:28;10.0;62.6
78536;SHT31;67829;51.968;5.684;2024-02-23T12:18:57;10.0;62.9
78536;SHT31;67829;51.968;5.684;2024-02-23T12:21:25;10.1;62.1
78536;SHT31;67829;51.968;5.684;2024-02-23T12:23:54;10.1;61.7
78536;SHT31;67829;51.968;5.684;2024-02-23T12:26:23;10.1;62.0
78536;SHT31;67829;51.968;5.684;2024-02-23T12:28:52;10.1;62.6
78536;SHT31;67829;51.968;5.684;2024-02-23T12:31:25;10.2;62.4
78536;SHT31;67829;51.968;5.684;2024-02-23T12:33:57;10.2;62.1
78536;SHT31;67829;51.968;5.684;2024-02-23T12:36:26;10.2;62.3
78536;SHT31;67829;51.968;5.684;2024-02-23T12:38:57;10.2;61.4
78536;SHT31;67829;51.968;5.684;2024-02-23T12:41:25;10.3;61.6
78536;SHT31;67829;51.968;5.684;2024-02-23T12:43:54;10.3;62.5
78536;SHT31;67829;51.968;5.684;2024-02-23T12:46:22;10.3;62.6
78536;SHT31;67829;51.968;5.684;2024-02-23T12:48:52;10.3;61.9
78536;SHT31;67829;51.968;5.684;2024-02-23T12:51:25;10.4;62.3
78536;SHT31;67829;51.968;5.684;2024-02-23T12:53:54;10.4;61.6
78536;SHT31;67829;51.968;5.684;2024-02-23T12:56:25;10.5;61.8
78536;SHT31;67829;51.968;5.684;2024-02-23T12:58:54;10.5;61.2
78536;SHT31;67829;51.968;5.684;2024-02-23T13:01:23;10.6;60.8
78536;SHT31;67829;51.968;5.684;2024-02-23T13:03:51;10.6;60.9
78536;SHT31;67829;51.968;5.684;2024-02-23T13:06:21;10.6;61.0
78536;SHT31;67829;51.968;5.684;2024-02-23T13:08:49;10.6;60.2
78536;SHT31;67829;51.968;5.684;2024-02-23T13:11:19;10.7;60.0
78536;SHT31;67829;51.968;5.684;2024-02-23T13:13:47;10.7;60.2
78536;SHT31;67829;51.968;5.684;2024-02-23T13:16:16;10.8;60.5
78536;SHT31;67829;51.968;5.684;2024-02-23T13:18:44;10.8;59.8
78536;SHT31;67829;51.968;5.684;2024-02-23T13:21:14;10.8;60.2
78536;SHT31;67829;51.968;5.684;2024-02-23T13:23:42;10.9;60.6
78536;SHT31;67829;51.968;5.684;2024-02-23T13:26:11;10.9;58.4
78536;SHT31;67829;51.968;5.684;2024-02-23T13:28:41;10.9;58.3
78536;SHT31;67829;51.968;5.684;2024-02-23T13:31:10;10.9;57.3
78536;SHT31;67829;51.968;5.684;2024-02-23T13:33:40;10.9;57.4
78536;SHT31;67829;51.968;5.684;2024-02-23T13:36:09;10.9;57.2
78536;SHT31;67829;51.968;5.684;2024-02-23T13:38:38;10.9;58.1
78536;SHT31;67829;51.968;5.684;2024-02-23T13:41:08;11.0;58.1
78536;SHT31;67829;51.968;5.684;2024-02-23T13:43:38;11.0;58.3
78536;SHT31;67829;51.968;5.684;2024-02-23T13:46:06;11.0;58.5
78536;SHT31;67829;51.968;5.684;2024-02-23T13:48:36;11.0;57.8
78536;SHT31;67829;51.968;5.684;2024-02-23T13:51:05;11.1;57.3
78536;SHT31;67829;51.968;5.684;2024-02-23T13:53:34;11.1;58.1
78536;SHT31;67829;51.968;5.684;2024-02-23T13:56:04;11.1;58.7
78536;SHT31;67829;51.968;5.684;2024-02-23T13:58:32;11.1;58.1
78536;SHT31;67829;51.968;5.684;2024-02-23T14:01:01;11.1;58.5
78536;SHT31;67829;51.968;5.684;2024-02-23T14:03:30;11.2;58.0
78536;SHT31;67829;51.968;5.684;2024-02-23T14:05:59;11.2;59.1
78536;SHT31;67829;51.968;5.684;2024-02-23T14:08:28;11.2;57.6
78536;SHT31;67829;51.968;5.684;2024-02-23T14:11:00;11.2;57.7
78536;SHT31;67829;51.968;5.684;2024-02-23T14:13:30;11.2;57.9
78536;SHT31;67829;51.968;5.684;2024-02-23T14:15:58;11.3;58.5
78536;SHT31;67829;51.968;5.684;2024-02-23T14:18:27;11.3;57.7
78536;SHT31;67829;51.968;5.684;2024-02-23T14:20:56;11.3;57.1
78536;SHT31;67829;51.968;5.684;2024-02-23T14:23:24;11.3;56.9
78536;SHT31;67829;51.968;5.684;2024-02-23T14:25:53;11.3;56.3
78536;SHT31;67829;51.968;5.684;2024-02-23T14:28:21;11.3;57.1
78536;SHT31;67829;51.968;5.684;2024-02-23T14:30:50;11.4;56.4
78536;SHT31;67829;51.968;5.684;2024-02-23T14:33:20;11.4;56.3
78536;SHT31;67829;51.968;5.684;2024-02-23T14:35:49;11.4;56.5
78536;SHT31;67829;51.968;5.684;2024-02-23T14:38:18;11.4;57.1
78536;SHT31;67829;51.968;5.684;2024-02-23T14:40:46;11.4;56.8
78536;SHT31;67829;51.968;5.684;2024-02-23T14:43:17;11.5;58.0
78536;SHT31;67829;51.968;5.684;2024-02-23T14:45:46;11.5;58.1
78536;SHT31;67829;51.968;5.684;2024-02-23T14:48:15;11.5;58.1
78536;SHT31;67829;51.968;5.684;2024-02-23T14:50:43;11.5;58.1
78536;SHT31;67829;51.968;5.684;2024-02-23T14:53:12;11.5;58.3
78536;SHT31;67829;51.968;5.684;2024-02-23T14:55:41;11.5;58.5
78536;SHT31;67829;51.968;5.684;2024-02-23T14:58:10;11.5;59.2
78536;SHT31;67829;51.968;5.684;2024-02-23T15:00:38;11.5;59.2
78536;SHT31;67829;51.968;5.684;2024-02-23T15:03:09;11.5;60.2
78536;SHT31;67829;51.968;5.684;2024-02-23T15:05:37;11.5;59.9
78536;SHT31;67829;51.968;5.684;2024-02-23T15:08:07;11.5;59.9
78536;SHT31;67829;51.968;5.684;2024-02-23T15:10:36;11.5;59.8
78536;SHT31;67829;51.968;5.684;2024-02-23T15:13:04;11.5;58.7
78536;SHT31;67829;51.968;5.684;2024-02-23T15:15:33;11.4;58.3
78536;SHT31;67829;51.968;5.684;2024-02-23T15:18:02;11.4;58.4
78536;SHT31;67829;51.968;5.684;2024-02-23T15:20:32;11.4;58.3
78536;SHT31;67829;51.968;5.684;2024-02-23T15:23:01;11.3;58.9
78536;SHT31;67829;51.968;5.684;2024-02-23T15:25:31;11.3;59.8
78536;SHT31;67829;51.968;5.684;2024-02-23T15:28:01;11.2;61.1
78536;SHT31;67829;51.968;5.684;2024-02-23T15:30:29;11.1;62.3
78536;SHT31;67829;51.968;5.684;2024-02-23T15:32:59;11.0;63.8
78536;SHT31;67829;51.968;5.684;2024-02-23T15:35:28;10.9;64.3
78536;SHT31;67829;51.968;5.684;2024-02-23T15:37:57;10.9;64.8
78536;SHT31;67829;51.968;5.684;2024-02-23T15:40:26;10.8;66.7
78536;SHT31;67829;51.968;5.684;2024-02-23T15:42:55;10.8;67.7
78536;SHT31;67829;51.968;5.684;2024-02-23T15:45:24;10.8;67.2
78536;SHT31;67829;51.968;5.684;2024-02-23T15:47:52;10.8;67.0
78536;SHT31;67829;51.968;5.684;2024-02-23T15:50:21;10.8;65.8
78536;SHT31;67829;51.968;5.684;2024-02-23T15:52:49;10.7;65.3
78536;SHT31;67829;51.968;5.684;2024-02-23T15:55:18;10.7;65.0
78536;SHT31;67829;51.968;5.684;2024-02-23T15:57:46;10.7;64.7
78536;SHT31;67829;51.968;5.684;2024-02-23T16:00:18;10.7;64.6
78536;SHT31;67829;51.968;5.684;2024-02-23T16:02:47;10.6;64.2
78536;SHT31;67829;51.968;5.684;2024-02-23T16:05:16;10.6;64.2
78536;SHT31;67829;51.968;5.684;2024-02-23T16:07:44;10.6;64.3
78536;SHT31;67829;51.968;5.684;2024-02-23T16:10:15;10.6;64.5
78536;SHT31;67829;51.968;5.684;2024-02-23T16:12:50;10.6;64.6
78536;SHT31;67829;51.968;5.684;2024-02-23T16:15:19;10.6;65.0
78536;SHT31;67829;51.968;5.684;2024-02-23T16:17:48;10.6;65.1
78536;SHT31;67829;51.968;5.684;2024-02-23T16:20:18;10.6;65.3
78536;SHT31;67829;51.968;5.684;2024-02-23T16:22:47;10.5;64.7
78536;SHT31;67829;51.968;5.684;2024-02-23T16:25:18;10.5;65.0
78536;SHT31;67829;51.968;5.684;2024-02-23T16:27:46;10.5;64.2